TimePST,TemperatureF,Dew PointF,Humidity,Sea Level PressureIn,VisibilityMPH,Wind Direction,Wind SpeedMPH,Gust SpeedMPH,PrecipitationIn,Events,Conditions,WindDirDegrees,DateUTC
12:53 AM,46.0,39.9,79,30.02,10.0,South,16.1,19.6,N/A,,Overcast,170,2012-12-11 08:53:00
1:53 AM,44.1,39.9,85,30.00,10.0,South,8.1,-,N/A,,Overcast,180,2012-12-11 09:53:00
2:02 AM,44.6,39.2,81,29.96,10.0,South,6.9,-,N/A,,Overcast,170,2012-12-11 10:02:00
2:33 AM,44.6,39.2,81,29.95,10.0,Variable,4.6,-,N/A,,Overcast,0,2012-12-11 10:33:00
2:53 AM,44.1,39.9,85,29.96,10.0,WSW,3.5,-,N/A,,Overcast,250,2012-12-11 10:53:00
3:53 AM,44.1,39.9,85,29.93,10.0,South,5.8,-,N/A,,Overcast,170,2012-12-11 11:53:00
4:40 AM,44.6,37.4,76,29.86,10.0,SE,12.7,-,N/A,,Mostly Cloudy,140,2012-12-11 12:40:00
4:53 AM,45.0,37.9,76,29.87,10.0,SSE,10.4,-,N/A,,Mostly Cloudy,160,2012-12-11 12:53:00
5:53 AM,45.0,37.0,74,29.81,10.0,SE,13.8,24.2,N/A,,Overcast,140,2012-12-11 13:53:00
6:53 AM,44.1,37.9,79,29.78,10.0,SSE,12.7,24.2,0.00,Rain,Light Rain,160,2012-12-11 14:53:00
7:53 AM,43.0,39.0,86,29.76,7.0,SE,16.1,20.7,0.01,Rain,Light Rain,140,2012-12-11 15:53:00
8:53 AM,44.1,39.0,82,29.73,10.0,SSE,17.3,28.8,0.00,Rain,Light Rain,150,2012-12-11 16:53:00
9:53 AM,44.1,37.9,79,29.69,10.0,SE,17.3,25.3,0.00,Rain,Light Rain,140,2012-12-11 17:53:00
10:10 AM,44.6,37.4,76,29.67,10.0,SE,15.0,20.7,0.00,Rain,Light Rain,140,2012-12-11 18:10:00
10:53 AM,45.0,37.9,76,29.67,10.0,SE,13.8,-,0.00,Rain,Light Rain,140,2012-12-11 18:53:00
11:53 AM,45.0,37.9,76,29.63,10.0,SE,13.8,21.9,0.00,Rain,Light Rain,130,2012-12-11 19:53:00
12:53 PM,44.1,39.0,82,29.61,7.0,ESE,10.4,-,0.01,Rain,Light Rain,120,2012-12-11 20:53:00
1:53 PM,44.1,39.9,85,29.59,9.0,ESE,11.5,-,0.05,Rain,Light Rain,120,2012-12-11 21:53:00
2:53 PM,44.1,39.9,85,29.57,5.0,East,11.5,-,0.06,Rain,Light Rain,100,2012-12-11 22:53:00
3:53 PM,43.0,39.9,89,29.57,4.0,East,8.1,-,0.07,Rain,Light Rain,90,2012-12-11 23:53:00
4:53 PM,43.0,41.0,93,29.56,10.0,ENE,3.5,-,0.01,Rain,Light Rain,70,2012-12-12 00:53:00
5:53 PM,41.0,41.0,100,29.56,10.0,Calm,Calm,-,0.00,,Overcast,0,2012-12-12 01:53:00
6:42 PM,44.6,41.0,87,29.54,10.0,SSE,8.1,-,N/A,,Overcast,150,2012-12-12 02:42:00
6:53 PM,44.1,41.0,89,29.57,10.0,ESE,5.8,-,N/A,,Overcast,120,2012-12-12 02:53:00
7:13 PM,42.8,41.0,93,29.54,10.0,SE,8.1,-,N/A,,Overcast,140,2012-12-12 03:13:00
7:53 PM,44.1,41.0,89,29.57,10.0,SE,5.8,-,N/A,,Overcast,140,2012-12-12 03:53:00
8:53 PM,43.0,42.1,97,29.59,8.0,East,3.5,-,0.00,Rain,Light Rain,90,2012-12-12 04:53:00
9:53 PM,41.0,41.0,100,29.60,4.0,NNE,3.5,-,0.00,Rain,Light Rain,30,2012-12-12 05:53:00
10:53 PM,41.0,41.0,100,29.61,4.0,Calm,Calm,-,0.00,Rain,Light Rain,0,2012-12-12 06:53:00
11:41 PM,41.0,41.0,100,29.59,5.0,NNE,3.5,-,0.00,,Overcast,20,2012-12-12 07:41:00
11:53 PM,41.0,41.0,100,29.62,4.0,Calm,Calm,-,0.00,,Overcast,0,2012-12-12 07:53:00